PWSweather.com
Personal Weather Stations
Station Observations
MBORO100
Brandywood , Murfreesboro, TN 37130

Brandywood Murfreesboro, TN 37130

Lat: 35.908093, Lon: -86.31352

Elevation: 690

Station Type: Davis

www.murfreesboroweather.com

High Low Average
Temperature 47.3°F8.5°C 33.0°F0.6°C 38.5°F3.6°C
Dew Point 34.6°F1.4°C 30.0°F-1.1°C 32.5°F0.3°C
Winds 5.8 mph 9.3 kmh Calm Calm 3.0 mph NW4.8 kmh NW
Wind Gusts 11.5 mph18.5 kmh -- 5.0 mph8.0 kmh
Humidity 97% 56% 80%
Pressure 30.23 in1023.7 mb 29.95 in1014.2 mb -
Precipitation 0.08 in2.0 mm - -
Hour Temp Dew Point Humidity Winds Wind Gusts Pressure Precip Precip Rate Daily Precip Total
12:00 AM 37.9°F3.3°C 36.6°F2.6°C 95% 3.5 mph WNW5.6 kmh WNW 5.8 mph9.3 kmh 29.94 in1013.9 mb - 0.00 in0.0 mm 0.00 in0.0 mm
12:10 AM 37.5°F3.1°C 36.2°F2.3°C 95% 2.3 mph NW3.7 kmh NW 3.5 mph5.6 kmh 29.94 in1013.9 mb - 0.00 in0.0 mm 0.00 in0.0 mm
12:15 AM 37.2°F2.9°C 35.9°F2.2°C 95% 4.6 mph NW7.4 kmh NW 8.1 mph13.0 kmh 29.94 in1013.9 mb - 0.00 in0.0 mm 0.00 in0.0 mm
12:20 AM 36.8°F2.7°C 35.2°F1.8°C 94% 4.6 mph NW7.4 kmh NW 8.1 mph13.0 kmh 29.94 in1013.9 mb - 0.00 in0.0 mm 0.00 in0.0 mm
12:25 AM 36.5°F2.5°C 34.9°F1.6°C 94% 3.5 mph NW5.6 kmh NW 8.1 mph13.0 kmh 29.94 in1013.9 mb - 0.00 in0.0 mm 0.00 in0.0 mm
12:30 AM 36.3°F2.4°C 35.1°F1.7°C 95% 4.6 mph NW7.4 kmh NW 5.8 mph9.3 kmh 29.94 in1013.9 mb - 0.00 in0.0 mm 0.00 in0.0 mm
12:35 AM 36.2°F2.3°C 34.9°F1.6°C 95% 2.3 mph NW3.7 kmh NW 3.5 mph5.6 kmh 29.94 in1013.9 mb - 0.00 in0.0 mm 0.00 in0.0 mm
12:40 AM 36.1°F2.3°C 34.8°F1.6°C 95% 2.3 mph NW3.7 kmh NW 4.6 mph7.4 kmh 29.94 in1013.9 mb - 0.00 in0.0 mm 0.00 in0.0 mm
12:45 AM 36.1°F2.3°C 34.8°F1.6°C 95% 3.5 mph N5.6 kmh N 4.6 mph7.4 kmh 29.95 in1014.2 mb - 0.00 in0.0 mm 0.00 in0.0 mm
12:50 AM 36.0°F2.2°C 34.8°F1.6°C 95% 2.3 mph NW3.7 kmh NW 6.9 mph11.1 kmh 29.95 in1014.2 mb - 0.00 in0.0 mm 0.00 in0.0 mm
12:55 AM 36.0°F2.2°C 34.7°F1.5°C 95% 3.5 mph NW5.6 kmh NW 3.5 mph5.6 kmh 29.95 in1014.2 mb - 0.00 in0.0 mm 0.00 in0.0 mm
01:00 AM 35.9°F2.2°C 34.6°F1.4°C 95% 5.8 mph NW9.3 kmh NW 9.2 mph14.8 kmh 29.95 in1014.2 mb - 0.00 in0.0 mm 0.00 in0.0 mm
01:10 AM 35.8°F2.1°C 34.5°F1.4°C 95% 2.3 mph NW3.7 kmh NW 3.5 mph5.6 kmh 29.95 in1014.2 mb - 0.00 in0.0 mm 0.00 in0.0 mm
01:15 AM 35.7°F2.1°C 34.4°F1.3°C 95% 3.5 mph NW5.6 kmh NW 4.6 mph7.4 kmh 29.96 in1014.6 mb - 0.00 in0.0 mm 0.00 in0.0 mm
01:20 AM 35.6°F2.0°C 34.3°F1.3°C 95% 2.3 mph NW3.7 kmh NW 4.6 mph7.4 kmh 29.96 in1014.6 mb - 0.00 in0.0 mm 0.00 in0.0 mm
01:25 AM 35.6°F2.0°C 34.3°F1.3°C 95% 3.5 mph NW5.6 kmh NW 4.6 mph7.4 kmh 29.96 in1014.6 mb - 0.00 in0.0 mm 0.00 in0.0 mm
01:30 AM 35.6°F2.0°C 34.3°F1.3°C 95% 3.5 mph NW5.6 kmh NW 4.6 mph7.4 kmh 29.96 in1014.6 mb - 0.00 in0.0 mm 0.00 in0.0 mm
01:35 AM 35.6°F2.0°C 34.3°F1.3°C 95% 3.5 mph NW5.6 kmh NW 3.5 mph5.6 kmh 29.96 in1014.6 mb - 0.00 in0.0 mm 0.00 in0.0 mm
01:40 AM 35.6°F2.0°C 34.3°F1.3°C 95% 3.5 mph NW5.6 kmh NW 4.6 mph7.4 kmh 29.96 in1014.6 mb - 0.01 in0.3 mm 0.01 in0.3 mm
01:45 AM 35.6°F2.0°C 34.3°F1.3°C 95% 2.3 mph NW3.7 kmh NW 4.6 mph7.4 kmh 29.97 in1014.9 mb - 0.00 in0.0 mm 0.01 in0.3 mm
01:50 AM 35.5°F1.9°C 34.2°F1.2°C 95% 3.5 mph NW5.6 kmh NW 4.6 mph7.4 kmh 29.97 in1014.9 mb - 0.00 in0.0 mm 0.01 in0.3 mm
01:55 AM 35.5°F1.9°C 34.2°F1.2°C 95% 3.5 mph NW5.6 kmh NW 6.9 mph11.1 kmh 29.97 in1014.9 mb - 0.00 in0.0 mm 0.01 in0.3 mm
02:00 AM 35.3°F1.8°C 34.1°F1.2°C 95% 2.3 mph NW3.7 kmh NW 3.5 mph5.6 kmh 29.97 in1014.9 mb - 0.00 in0.0 mm 0.01 in0.3 mm
02:10 AM 35.2°F1.8°C 33.9°F1.1°C 95% 3.5 mph WNW5.6 kmh WNW 4.6 mph7.4 kmh 29.97 in1014.9 mb - 0.00 in0.0 mm 0.01 in0.3 mm
02:15 AM 34.9°F1.6°C 33.6°F0.9°C 95% 3.5 mph NW5.6 kmh NW 3.5 mph5.6 kmh 29.97 in1014.9 mb - 0.00 in0.0 mm 0.01 in0.3 mm
02:20 AM 34.7°F1.5°C 33.4°F0.8°C 95% 3.5 mph NW5.6 kmh NW 4.6 mph7.4 kmh 29.97 in1014.9 mb - 0.00 in0.0 mm 0.01 in0.3 mm
02:25 AM 34.5°F1.4°C 33.2°F0.7°C 95% 3.5 mph NW5.6 kmh NW 3.5 mph5.6 kmh 29.97 in1014.9 mb - 0.00 in0.0 mm 0.01 in0.3 mm
02:30 AM 34.3°F1.3°C 33.0°F0.6°C 95% 3.5 mph NNW5.6 kmh NNW 4.6 mph7.4 kmh 29.97 in1014.9 mb - 0.00 in0.0 mm 0.01 in0.3 mm
02:35 AM 34.1°F1.2°C 32.8°F0.4°C 95% 3.5 mph NW5.6 kmh NW 3.5 mph5.6 kmh 29.97 in1014.9 mb - 0.00 in0.0 mm 0.01 in0.3 mm
02:40 AM 33.9°F1.1°C 32.6°F0.3°C 95% 3.5 mph NW5.6 kmh NW 3.5 mph5.6 kmh 29.97 in1014.9 mb - 0.00 in0.0 mm 0.01 in0.3 mm
02:45 AM 33.8°F1.0°C 32.8°F0.4°C 96% 3.5 mph NW5.6 kmh NW 4.6 mph7.4 kmh 29.97 in1014.9 mb - 0.01 in0.3 mm 0.02 in0.5 mm
02:50 AM 33.9°F1.1°C 32.9°F0.5°C 96% 3.5 mph NW5.6 kmh NW 4.6 mph7.4 kmh 29.97 in1014.9 mb - 0.00 in0.0 mm 0.02 in0.5 mm
02:55 AM 33.8°F1.0°C 32.8°F0.4°C 96% 2.3 mph NW3.7 kmh NW 3.5 mph5.6 kmh 29.97 in1014.9 mb - 0.00 in0.0 mm 0.02 in0.5 mm
03:00 AM 33.9°F1.1°C 32.9°F0.5°C 96% 2.3 mph NW3.7 kmh NW 3.5 mph5.6 kmh 29.97 in1014.9 mb - 0.00 in0.0 mm 0.02 in0.5 mm
03:10 AM 33.8°F1.0°C 32.8°F0.4°C 96% 3.5 mph NW5.6 kmh NW 3.5 mph5.6 kmh 29.97 in1014.9 mb - 0.00 in0.0 mm 0.02 in0.5 mm
03:15 AM 33.8°F1.0°C 32.8°F0.4°C 96% 2.3 mph NW3.7 kmh NW 3.5 mph5.6 kmh 29.97 in1014.9 mb - 0.00 in0.0 mm 0.02 in0.5 mm
03:20 AM 33.9°F1.1°C 32.9°F0.5°C 96% 2.3 mph NW3.7 kmh NW 3.5 mph5.6 kmh 29.97 in1014.9 mb - 0.00 in0.0 mm 0.02 in0.5 mm
03:25 AM 33.9°F1.1°C 32.9°F0.5°C 96% 3.5 mph NW5.6 kmh NW 3.5 mph5.6 kmh 29.97 in1014.9 mb - 0.00 in0.0 mm 0.02 in0.5 mm
03:30 AM 33.9°F1.1°C 32.9°F0.5°C 96% 2.3 mph NW3.7 kmh NW 3.5 mph5.6 kmh 29.97 in1014.9 mb - 0.00 in0.0 mm 0.02 in0.5 mm
03:35 AM 33.9°F1.1°C 32.9°F0.5°C 96% 3.5 mph NW5.6 kmh NW 6.9 mph11.1 kmh 29.97 in1014.9 mb - 0.00 in0.0 mm 0.02 in0.5 mm
03:40 AM 33.9°F1.1°C 32.9°F0.5°C 96% 2.3 mph NW3.7 kmh NW 4.6 mph7.4 kmh 29.97 in1014.9 mb - 0.01 in0.3 mm 0.03 in0.8 mm
03:45 AM 33.9°F1.1°C 32.9°F0.5°C 96% 2.3 mph NW3.7 kmh NW 3.5 mph5.6 kmh 29.97 in1014.9 mb - 0.00 in0.0 mm 0.03 in0.8 mm
03:50 AM 34.0°F1.1°C 33.0°F0.6°C 96% 3.5 mph NW5.6 kmh NW 3.5 mph5.6 kmh 29.97 in1014.9 mb - 0.00 in0.0 mm 0.03 in0.8 mm
03:55 AM 33.9°F1.1°C 32.9°F0.5°C 96% 3.5 mph NW5.6 kmh NW 3.5 mph5.6 kmh 29.97 in1014.9 mb - 0.00 in0.0 mm 0.03 in0.8 mm
04:00 AM 33.8°F1.0°C 32.8°F0.4°C 96% 2.3 mph NW3.7 kmh NW 3.5 mph5.6 kmh 29.97 in1014.9 mb - 0.00 in0.0 mm 0.03 in0.8 mm
04:10 AM 33.5°F0.8°C 32.5°F0.3°C 96% 3.5 mph NW5.6 kmh NW 4.6 mph7.4 kmh 29.98 in1015.2 mb - 0.00 in0.0 mm 0.03 in0.8 mm
04:15 AM 33.4°F0.8°C 32.4°F0.2°C 96% 2.3 mph NW3.7 kmh NW 3.5 mph5.6 kmh 29.98 in1015.2 mb - 0.00 in0.0 mm 0.03 in0.8 mm
04:20 AM 33.4°F0.8°C 32.4°F0.2°C 96% 3.5 mph NW5.6 kmh NW 3.5 mph5.6 kmh 29.98 in1015.2 mb - 0.00 in0.0 mm 0.03 in0.8 mm
04:25 AM 33.4°F0.8°C 32.4°F0.2°C 96% 3.5 mph NNW5.6 kmh NNW 4.6 mph7.4 kmh 29.98 in1015.2 mb - 0.00 in0.0 mm 0.03 in0.8 mm
04:30 AM 33.4°F0.8°C 32.4°F0.2°C 96% 2.3 mph N3.7 kmh N 3.5 mph5.6 kmh 29.98 in1015.2 mb - 0.00 in0.0 mm 0.03 in0.8 mm
04:35 AM 33.5°F0.8°C 32.5°F0.3°C 96% 2.3 mph N3.7 kmh N 3.5 mph5.6 kmh 29.98 in1015.2 mb - 0.00 in0.0 mm 0.03 in0.8 mm
04:40 AM 33.4°F0.8°C 32.4°F0.2°C 96% 3.5 mph NW5.6 kmh NW 3.5 mph5.6 kmh 29.98 in1015.2 mb - 0.00 in0.0 mm 0.03 in0.8 mm
04:45 AM 33.4°F0.8°C 32.4°F0.2°C 96% 2.3 mph NNW3.7 kmh NNW 3.5 mph5.6 kmh 29.98 in1015.2 mb - 0.00 in0.0 mm 0.03 in0.8 mm
04:50 AM 33.3°F0.7°C 32.3°F0.2°C 96% 2.3 mph NNW3.7 kmh NNW 3.5 mph5.6 kmh 29.99 in1015.6 mb - 0.00 in0.0 mm 0.03 in0.8 mm
04:55 AM 33.3°F0.7°C 32.3°F0.2°C 96% 3.5 mph NW5.6 kmh NW 3.5 mph5.6 kmh 29.99 in1015.6 mb - 0.00 in0.0 mm 0.03 in0.8 mm
05:00 AM 33.3°F0.7°C 32.3°F0.2°C 96% 3.5 mph NW5.6 kmh NW 4.6 mph7.4 kmh 29.99 in1015.6 mb - 0.00 in0.0 mm 0.03 in0.8 mm
05:10 AM 33.3°F0.7°C 32.3°F0.2°C 96% 2.3 mph NW3.7 kmh NW 5.8 mph9.3 kmh 30.00 in1015.9 mb - 0.00 in0.0 mm 0.03 in0.8 mm
05:15 AM 33.3°F0.7°C 32.3°F0.2°C 96% 2.3 mph NW3.7 kmh NW 3.5 mph5.6 kmh 30.00 in1015.9 mb - 0.00 in0.0 mm 0.03 in0.8 mm
05:20 AM 33.3°F0.7°C 32.3°F0.2°C 96% 2.3 mph NW3.7 kmh NW 3.5 mph5.6 kmh 30.00 in1015.9 mb - 0.00 in0.0 mm 0.03 in0.8 mm
05:25 AM 33.3°F0.7°C 32.3°F0.2°C 96% 3.5 mph WNW5.6 kmh WNW 5.8 mph9.3 kmh 30.00 in1015.9 mb - 0.00 in0.0 mm 0.03 in0.8 mm
05:30 AM 33.3°F0.7°C 32.3°F0.2°C 96% 3.5 mph NW5.6 kmh NW 3.5 mph5.6 kmh 30.00 in1015.9 mb - 0.00 in0.0 mm 0.03 in0.8 mm
05:35 AM 33.2°F0.7°C 32.2°F0.1°C 96% 3.5 mph NW5.6 kmh NW 4.6 mph7.4 kmh 30.00 in1015.9 mb - 0.00 in0.0 mm 0.03 in0.8 mm
05:40 AM 33.2°F0.7°C 32.2°F0.1°C 96% 4.6 mph NW7.4 kmh NW 6.9 mph11.1 kmh 30.00 in1015.9 mb - 0.00 in0.0 mm 0.03 in0.8 mm
05:45 AM 33.2°F0.7°C 32.2°F0.1°C 96% 2.3 mph NW3.7 kmh NW 3.5 mph5.6 kmh 30.01 in1016.3 mb - 0.00 in0.0 mm 0.03 in0.8 mm
05:50 AM 33.1°F0.6°C 32.3°F0.2°C 97% 3.5 mph NW5.6 kmh NW 3.5 mph5.6 kmh 30.01 in1016.3 mb - 0.00 in0.0 mm 0.03 in0.8 mm
05:55 AM 33.1°F0.6°C 32.3°F0.2°C 97% 2.3 mph NW3.7 kmh NW 3.5 mph5.6 kmh 30.01 in1016.3 mb - 0.00 in0.0 mm 0.03 in0.8 mm
06:00 AM 33.0°F0.6°C 32.2°F0.1°C 97% 2.3 mph NW3.7 kmh NW 3.5 mph5.6 kmh 30.02 in1016.6 mb - 0.00 in0.0 mm 0.03 in0.8 mm
06:10 AM 33.0°F0.6°C 32.2°F0.1°C 97% 2.3 mph NW3.7 kmh NW 4.6 mph7.4 kmh 30.02 in1016.6 mb - 0.00 in0.0 mm 0.03 in0.8 mm
06:15 AM 33.0°F0.6°C 32.2°F0.1°C 97% 2.3 mph NNW3.7 kmh NNW 3.5 mph5.6 kmh 30.02 in1016.6 mb - 0.00 in0.0 mm 0.03 in0.8 mm
06:20 AM 33.0°F0.6°C 32.2°F0.1°C 97% 2.3 mph NW3.7 kmh NW 3.5 mph5.6 kmh 30.02 in1016.6 mb - 0.00 in0.0 mm 0.03 in0.8 mm
06:25 AM 33.0°F0.6°C 32.0°F0.0°C 96% 2.3 mph NNW3.7 kmh NNW 6.9 mph11.1 kmh 30.02 in1016.6 mb - 0.00 in0.0 mm 0.03 in0.8 mm
06:30 AM 33.0°F0.6°C 32.2°F0.1°C 97% 2.3 mph NW3.7 kmh NW 3.5 mph5.6 kmh 30.03 in1016.9 mb - 0.00 in0.0 mm 0.03 in0.8 mm
06:35 AM 33.0°F0.6°C 32.2°F0.1°C 97% 3.5 mph NNW5.6 kmh NNW 4.6 mph7.4 kmh 30.03 in1016.9 mb - 0.00 in0.0 mm 0.03 in0.8 mm
06:40 AM 33.0°F0.6°C 32.2°F0.1°C 97% 3.5 mph NW5.6 kmh NW 3.5 mph5.6 kmh 30.04 in1017.3 mb - 0.00 in0.0 mm 0.03 in0.8 mm
06:45 AM 33.0°F0.6°C 32.2°F0.1°C 97% 2.3 mph NW3.7 kmh NW 3.5 mph5.6 kmh 30.04 in1017.3 mb - 0.00 in0.0 mm 0.03 in0.8 mm
06:50 AM 33.0°F0.6°C 32.2°F0.1°C 97% 2.3 mph NW3.7 kmh NW 3.5 mph5.6 kmh 30.04 in1017.3 mb - 0.00 in0.0 mm 0.03 in0.8 mm
06:55 AM 33.0°F0.6°C 32.2°F0.1°C 97% 2.3 mph NW3.7 kmh NW 3.5 mph5.6 kmh 30.04 in1017.3 mb - 0.00 in0.0 mm 0.03 in0.8 mm
07:00 AM 33.0°F0.6°C 32.2°F0.1°C 97% 2.3 mph NNW3.7 kmh NNW 3.5 mph5.6 kmh 30.05 in1017.6 mb - 0.00 in0.0 mm 0.03 in0.8 mm
07:10 AM 33.0°F0.6°C 32.3°F0.2°C 97% 3.5 mph NW5.6 kmh NW 5.8 mph9.3 kmh 30.05 in1017.6 mb - 0.00 in0.0 mm 0.03 in0.8 mm
07:15 AM 33.1°F0.6°C 32.3°F0.2°C 97% 2.3 mph NW3.7 kmh NW 3.5 mph5.6 kmh 30.05 in1017.6 mb - 0.00 in0.0 mm 0.03 in0.8 mm
07:20 AM 33.2°F0.7°C 32.4°F0.2°C 97% 2.3 mph NW3.7 kmh NW 4.6 mph7.4 kmh 30.05 in1017.6 mb - 0.00 in0.0 mm 0.03 in0.8 mm
07:25 AM 33.2°F0.7°C 32.2°F0.1°C 96% 2.3 mph NNW3.7 kmh NNW 3.5 mph5.6 kmh 30.05 in1017.6 mb - 0.00 in0.0 mm 0.03 in0.8 mm
07:30 AM 33.3°F0.7°C 32.3°F0.2°C 96% 2.3 mph NW3.7 kmh NW 3.5 mph5.6 kmh 30.06 in1017.9 mb - 0.00 in0.0 mm 0.03 in0.8 mm
07:35 AM 33.4°F0.8°C 32.4°F0.2°C 96% 2.3 mph NW3.7 kmh NW 3.5 mph5.6 kmh 30.06 in1017.9 mb - 0.00 in0.0 mm 0.03 in0.8 mm
07:40 AM 33.5°F0.8°C 32.5°F0.3°C 96% 2.3 mph NW3.7 kmh NW 3.5 mph5.6 kmh 30.06 in1017.9 mb - 0.00 in0.0 mm 0.03 in0.8 mm
07:45 AM 33.6°F0.9°C 32.6°F0.3°C 96% 2.3 mph NNE3.7 kmh NNE 3.5 mph5.6 kmh 30.07 in1018.3 mb - 0.00 in0.0 mm 0.03 in0.8 mm
07:50 AM 33.5°F0.8°C 32.5°F0.3°C 96% 2.3 mph NW3.7 kmh NW 3.5 mph5.6 kmh 30.06 in1017.9 mb - 0.00 in0.0 mm 0.03 in0.8 mm
07:55 AM 33.5°F0.8°C 32.2°F0.1°C 95% 2.3 mph NW3.7 kmh NW 3.5 mph5.6 kmh 30.07 in1018.3 mb - 0.00 in0.0 mm 0.03 in0.8 mm
08:00 AM 33.5°F0.8°C 32.2°F0.1°C 95% 2.3 mph NW3.7 kmh NW 3.5 mph5.6 kmh 30.07 in1018.3 mb - 0.00 in0.0 mm 0.03 in0.8 mm
08:10 AM 33.7°F0.9°C 32.4°F0.2°C 95% 3.5 mph NW5.6 kmh NW 3.5 mph5.6 kmh 30.07 in1018.3 mb - 0.00 in0.0 mm 0.03 in0.8 mm
08:15 AM 33.8°F1.0°C 32.5°F0.3°C 95% 3.5 mph NW5.6 kmh NW 3.5 mph5.6 kmh 30.07 in1018.3 mb - 0.00 in0.0 mm 0.03 in0.8 mm
08:20 AM 33.9°F1.1°C 32.7°F0.4°C 95% 4.6 mph NW7.4 kmh NW 9.2 mph14.8 kmh 30.08 in1018.6 mb - 0.00 in0.0 mm 0.03 in0.8 mm
08:25 AM 34.1°F1.2°C 32.8°F0.4°C 95% 3.5 mph NW5.6 kmh NW 4.6 mph7.4 kmh 30.08 in1018.6 mb - 0.00 in0.0 mm 0.03 in0.8 mm
08:30 AM 34.3°F1.3°C 33.0°F0.6°C 95% 3.5 mph NW5.6 kmh NW 8.1 mph13.0 kmh 30.08 in1018.6 mb - 0.00 in0.0 mm 0.03 in0.8 mm
08:35 AM 34.4°F1.3°C 32.9°F0.5°C 94% 2.3 mph NW3.7 kmh NW 3.5 mph5.6 kmh 30.09 in1019.0 mb - 0.00 in0.0 mm 0.03 in0.8 mm
08:40 AM 34.6°F1.4°C 33.1°F0.6°C 94% 2.3 mph NNW3.7 kmh NNW 5.8 mph9.3 kmh 30.09 in1019.0 mb - 0.00 in0.0 mm 0.03 in0.8 mm
08:45 AM 34.5°F1.4°C 33.0°F0.6°C 94% 3.5 mph NW5.6 kmh NW 8.1 mph13.0 kmh 30.09 in1019.0 mb - 0.00 in0.0 mm 0.03 in0.8 mm
08:50 AM 34.3°F1.3°C 32.5°F0.3°C 93% 2.3 mph NW3.7 kmh NW 3.5 mph5.6 kmh 30.09 in1019.0 mb - 0.00 in0.0 mm 0.03 in0.8 mm
08:55 AM 34.4°F1.3°C 32.6°F0.3°C 93% 3.5 mph NW5.6 kmh NW 9.2 mph14.8 kmh 30.09 in1019.0 mb - 0.00 in0.0 mm 0.03 in0.8 mm
09:00 AM 34.4°F1.3°C 32.6°F0.3°C 93% 3.5 mph NNW5.6 kmh NNW 8.1 mph13.0 kmh 30.09 in1019.0 mb - 0.00 in0.0 mm 0.03 in0.8 mm
09:10 AM 34.6°F1.4°C 32.8°F0.4°C 93% 3.5 mph NW5.6 kmh NW 3.5 mph5.6 kmh 30.10 in1019.3 mb - 0.00 in0.0 mm 0.03 in0.8 mm
09:15 AM 34.9°F1.6°C 33.1°F0.6°C 93% 2.3 mph NW3.7 kmh NW 3.5 mph5.6 kmh 30.11 in1019.6 mb - 0.00 in0.0 mm 0.03 in0.8 mm
09:20 AM 34.8°F1.6°C 32.7°F0.4°C 92% 4.6 mph NW7.4 kmh NW 5.8 mph9.3 kmh 30.11 in1019.6 mb - 0.00 in0.0 mm 0.03 in0.8 mm
09:25 AM 34.9°F1.6°C 32.5°F0.3°C 91% 3.5 mph NW5.6 kmh NW 8.1 mph13.0 kmh 30.11 in1019.6 mb - 0.00 in0.0 mm 0.03 in0.8 mm
09:30 AM 34.9°F1.6°C 32.6°F0.3°C 91% 3.5 mph NW5.6 kmh NW 5.8 mph9.3 kmh 30.11 in1019.6 mb - 0.01 in0.3 mm 0.04 in1.0 mm
09:35 AM 35.1°F1.7°C 32.7°F0.4°C 91% 3.5 mph NW5.6 kmh NW 4.6 mph7.4 kmh 30.11 in1019.6 mb - 0.00 in0.0 mm 0.04 in1.0 mm
09:40 AM 35.2°F1.8°C 32.6°F0.3°C 90% 2.3 mph NW3.7 kmh NW 4.6 mph7.4 kmh 30.11 in1019.6 mb - 0.00 in0.0 mm 0.04 in1.0 mm
09:45 AM 35.7°F2.1°C 33.1°F0.6°C 90% 2.3 mph WNW3.7 kmh WNW 5.8 mph9.3 kmh 30.11 in1019.6 mb - 0.00 in0.0 mm 0.04 in1.0 mm
09:50 AM 36.1°F2.3°C 33.4°F0.8°C 90% 2.3 mph N3.7 kmh N 3.5 mph5.6 kmh 30.11 in1019.6 mb - 0.00 in0.0 mm 0.04 in1.0 mm
09:55 AM 36.2°F2.3°C 33.3°F0.7°C 89% 1.2 mph NW1.9 kmh NW 3.5 mph5.6 kmh 30.11 in1019.6 mb - 0.01 in0.3 mm 0.05 in1.3 mm
10:00 AM 36.7°F2.6°C 33.5°F0.8°C 88% 4.6 mph NNW7.4 kmh NNW 8.1 mph13.0 kmh 30.12 in1020.0 mb - 0.00 in0.0 mm 0.05 in1.3 mm
10:10 AM 37.7°F3.2°C 34.2°F1.2°C 87% 3.5 mph NNW5.6 kmh NNW 4.6 mph7.4 kmh 30.12 in1020.0 mb - 0.01 in0.3 mm 0.06 in1.5 mm
10:15 AM 37.5°F3.1°C 33.4°F0.8°C 85% 3.5 mph N5.6 kmh N 3.5 mph5.6 kmh 30.12 in1020.0 mb - 0.00 in0.0 mm 0.06 in1.5 mm
10:20 AM 37.6°F3.1°C 33.5°F0.8°C 85% 3.5 mph NW5.6 kmh NW 4.6 mph7.4 kmh 30.12 in1020.0 mb - 0.01 in0.3 mm 0.07 in1.8 mm
10:25 AM 37.9°F3.3°C 33.2°F0.7°C 83% 3.5 mph NW5.6 kmh NW 5.8 mph9.3 kmh 30.12 in1020.0 mb - 0.00 in0.0 mm 0.07 in1.8 mm
10:30 AM 38.4°F3.6°C 33.7°F0.9°C 83% 3.5 mph NW5.6 kmh NW 4.6 mph7.4 kmh 30.12 in1020.0 mb - 0.00 in0.0 mm 0.07 in1.8 mm
10:35 AM 38.9°F3.8°C 34.5°F1.4°C 84% 2.3 mph NW3.7 kmh NW 3.5 mph5.6 kmh 30.12 in1020.0 mb - 0.00 in0.0 mm 0.07 in1.8 mm
10:40 AM 39.2°F4.0°C 33.2°F0.7°C 79% 4.6 mph NW7.4 kmh NW 8.1 mph13.0 kmh 30.13 in1020.3 mb - 0.00 in0.0 mm 0.07 in1.8 mm
10:45 AM 39.1°F3.9°C 33.4°F0.8°C 80% 3.5 mph NNE5.6 kmh NNE 5.8 mph9.3 kmh 30.13 in1020.3 mb - 0.00 in0.0 mm 0.07 in1.8 mm
10:50 AM 39.9°F4.4°C 33.9°F1.1°C 79% 3.5 mph N5.6 kmh N 4.6 mph7.4 kmh 30.13 in1020.3 mb - 0.00 in0.0 mm 0.07 in1.8 mm
10:55 AM 40.1°F4.5°C 33.8°F1.0°C 78% 3.5 mph NW5.6 kmh NW 8.1 mph13.0 kmh 30.13 in1020.3 mb - 0.00 in0.0 mm 0.07 in1.8 mm
11:00 AM 40.5°F4.7°C 33.5°F0.8°C 76% 3.5 mph NNE5.6 kmh NNE 3.5 mph5.6 kmh 30.13 in1020.3 mb - 0.00 in0.0 mm 0.07 in1.8 mm
11:10 AM 40.9°F4.9°C 33.9°F1.1°C 76% 4.6 mph NW7.4 kmh NW 8.1 mph13.0 kmh 30.13 in1020.3 mb - 0.00 in0.0 mm 0.07 in1.8 mm
11:15 AM 40.3°F4.6°C 33.0°F0.6°C 75% 4.6 mph NNW7.4 kmh NNW 6.9 mph11.1 kmh 30.13 in1020.3 mb - 0.01 in0.3 mm 0.08 in2.0 mm
11:20 AM 40.4°F4.7°C 32.8°F0.4°C 74% 4.6 mph N7.4 kmh N 8.1 mph13.0 kmh 30.13 in1020.3 mb - 0.00 in0.0 mm 0.08 in2.0 mm
11:25 AM 41.3°F5.2°C 33.3°F0.7°C 73% 4.6 mph NW7.4 kmh NW 6.9 mph11.1 kmh 30.13 in1020.3 mb - 0.00 in0.0 mm 0.08 in2.0 mm
11:30 AM 42.3°F5.7°C 34.2°F1.2°C 73% 4.6 mph NW7.4 kmh NW 9.2 mph14.8 kmh 30.13 in1020.3 mb - 0.00 in0.0 mm 0.08 in2.0 mm
11:35 AM 41.9°F5.5°C 32.1°F0.1°C 68% 3.5 mph NW5.6 kmh NW 4.6 mph7.4 kmh 30.13 in1020.3 mb - 0.00 in0.0 mm 0.08 in2.0 mm
11:40 AM 42.8°F6.0°C 33.0°F0.6°C 68% 3.5 mph NNW5.6 kmh NNW 6.9 mph11.1 kmh 30.13 in1020.3 mb - 0.00 in0.0 mm 0.08 in2.0 mm
11:45 AM 43.4°F6.3°C 33.9°F1.1°C 69% 3.5 mph N5.6 kmh N 4.6 mph7.4 kmh 30.13 in1020.3 mb - 0.00 in0.0 mm 0.08 in2.0 mm
11:50 AM 43.2°F6.2°C 34.0°F1.1°C 70% 3.5 mph NE5.6 kmh NE 4.6 mph7.4 kmh 30.13 in1020.3 mb - 0.00 in0.0 mm 0.08 in2.0 mm
11:55 AM 42.7°F5.9°C 32.9°F0.5°C 68% 4.6 mph NW7.4 kmh NW 8.1 mph13.0 kmh 30.13 in1020.3 mb - 0.00 in0.0 mm 0.08 in2.0 mm
12:00 PM 43.0°F6.1°C 33.1°F0.6°C 68% 3.5 mph N5.6 kmh N 4.6 mph7.4 kmh 30.13 in1020.3 mb - 0.00 in0.0 mm 0.08 in2.0 mm
12:10 PM 43.3°F6.3°C 33.1°F0.6°C 67% 4.6 mph NNW7.4 kmh NNW 9.2 mph14.8 kmh 30.13 in1020.3 mb - 0.00 in0.0 mm 0.08 in2.0 mm
12:15 PM 43.8°F6.6°C 33.9°F1.1°C 68% 3.5 mph NW5.6 kmh NW 9.2 mph14.8 kmh 30.13 in1020.3 mb - 0.00 in0.0 mm 0.08 in2.0 mm
12:20 PM 43.6°F6.4°C 31.8°F-0.1°C 63% 4.6 mph NNW7.4 kmh NNW 8.1 mph13.0 kmh 30.13 in1020.3 mb - 0.00 in0.0 mm 0.08 in2.0 mm
12:25 PM 43.2°F6.2°C 31.9°F-0.1°C 64% 4.6 mph NW7.4 kmh NW 9.2 mph14.8 kmh 30.13 in1020.3 mb - 0.00 in0.0 mm 0.08 in2.0 mm
12:30 PM 43.5°F6.4°C 31.4°F-0.3°C 62% 4.6 mph NNW7.4 kmh NNW 8.1 mph13.0 kmh 30.13 in1020.3 mb - 0.00 in0.0 mm 0.08 in2.0 mm
12:35 PM 43.7°F6.5°C 32.4°F0.2°C 64% 3.5 mph N5.6 kmh N 5.8 mph9.3 kmh 30.12 in1020.0 mb - 0.00 in0.0 mm 0.08 in2.0 mm
12:40 PM 44.8°F7.1°C 33.8°F1.0°C 65% 3.5 mph NW5.6 kmh NW 10.4 mph16.7 kmh 30.13 in1020.3 mb - 0.00 in0.0 mm 0.08 in2.0 mm
12:45 PM 44.1°F6.7°C 31.1°F-0.5°C 60% 5.8 mph NW9.3 kmh NW 11.5 mph18.5 kmh 30.13 in1020.3 mb - 0.00 in0.0 mm 0.08 in2.0 mm
12:50 PM 44.0°F6.7°C 31.8°F-0.1°C 62% 4.6 mph N7.4 kmh N 4.6 mph7.4 kmh 30.13 in1020.3 mb - 0.00 in0.0 mm 0.08 in2.0 mm
12:55 PM 44.4°F6.9°C 32.2°F0.1°C 62% 3.5 mph NNW5.6 kmh NNW 4.6 mph7.4 kmh 30.13 in1020.3 mb - 0.00 in0.0 mm 0.08 in2.0 mm
01:00 PM 45.2°F7.3°C 33.4°F0.8°C 63% 3.5 mph NNW5.6 kmh NNW 6.9 mph11.1 kmh 30.13 in1020.3 mb - 0.00 in0.0 mm 0.08 in2.0 mm
01:10 PM 45.0°F7.2°C 32.0°F0.0°C 60% 3.5 mph N5.6 kmh N 8.1 mph13.0 kmh 30.13 in1020.3 mb - 0.00 in0.0 mm 0.08 in2.0 mm
01:15 PM 45.1°F7.3°C 31.6°F-0.2°C 59% 5.8 mph N9.3 kmh N 8.1 mph13.0 kmh 30.13 in1020.3 mb - 0.00 in0.0 mm 0.08 in2.0 mm
01:20 PM 45.0°F7.2°C 31.9°F-0.1°C 60% 3.5 mph N5.6 kmh N 4.6 mph7.4 kmh 30.13 in1020.3 mb - 0.00 in0.0 mm 0.08 in2.0 mm
01:25 PM 45.7°F7.6°C 32.2°F0.1°C 59% 5.8 mph NW9.3 kmh NW 8.1 mph13.0 kmh 30.13 in1020.3 mb - 0.00 in0.0 mm 0.08 in2.0 mm
01:30 PM 45.2°F7.3°C 30.9°F-0.6°C 57% 4.6 mph NNW7.4 kmh NNW 5.8 mph9.3 kmh 30.13 in1020.3 mb - 0.00 in0.0 mm 0.08 in2.0 mm
01:35 PM 45.6°F7.6°C 32.1°F0.1°C 59% 4.6 mph NW7.4 kmh NW 8.1 mph13.0 kmh 30.13 in1020.3 mb - 0.00 in0.0 mm 0.08 in2.0 mm
01:40 PM 45.9°F7.7°C 32.4°F0.2°C 59% 2.3 mph NNE3.7 kmh NNE 5.8 mph9.3 kmh 30.13 in1020.3 mb - 0.00 in0.0 mm 0.08 in2.0 mm
01:45 PM 46.1°F7.8°C 32.6°F0.3°C 59% 3.5 mph NW5.6 kmh NW 3.5 mph5.6 kmh 30.12 in1020.0 mb - 0.00 in0.0 mm 0.08 in2.0 mm
01:50 PM 46.5°F8.1°C 32.1°F0.1°C 57% 3.5 mph NW5.6 kmh NW 6.9 mph11.1 kmh 30.12 in1020.0 mb - 0.00 in0.0 mm 0.08 in2.0 mm
01:55 PM 46.5°F8.1°C 31.6°F-0.2°C 56% 3.5 mph NW5.6 kmh NW 9.2 mph14.8 kmh 30.12 in1020.0 mb - 0.00 in0.0 mm 0.08 in2.0 mm
02:00 PM 47.0°F8.3°C 33.0°F0.6°C 58% 4.6 mph NNW7.4 kmh NNW 11.5 mph18.5 kmh 30.12 in1020.0 mb - 0.00 in0.0 mm 0.08 in2.0 mm
02:10 PM 46.0°F7.8°C 31.6°F-0.2°C 57% 4.6 mph NW7.4 kmh NW 9.2 mph14.8 kmh 30.12 in1020.0 mb - 0.00 in0.0 mm 0.08 in2.0 mm
02:15 PM 45.7°F7.6°C 32.2°F0.1°C 59% 4.6 mph N7.4 kmh N 4.6 mph7.4 kmh 30.12 in1020.0 mb - 0.00 in0.0 mm 0.08 in2.0 mm
02:20 PM 46.5°F8.1°C 33.3°F0.7°C 60% 2.3 mph NW3.7 kmh NW 4.6 mph7.4 kmh 30.12 in1020.0 mb - 0.00 in0.0 mm 0.08 in2.0 mm
02:25 PM 47.3°F8.5°C 33.3°F0.7°C 58% 3.5 mph NNW5.6 kmh NNW 4.6 mph7.4 kmh 30.12 in1020.0 mb - 0.00 in0.0 mm 0.08 in2.0 mm
02:30 PM 46.5°F8.1°C 32.5°F0.3°C 58% 3.5 mph NW5.6 kmh NW 8.1 mph13.0 kmh 30.12 in1020.0 mb - 0.00 in0.0 mm 0.08 in2.0 mm
02:35 PM 45.8°F7.7°C 31.8°F-0.1°C 58% 5.8 mph NNW9.3 kmh NNW 9.2 mph14.8 kmh 30.12 in1020.0 mb - 0.00 in0.0 mm 0.08 in2.0 mm
02:40 PM 45.2°F7.3°C 31.7°F-0.2°C 59% 5.8 mph NW9.3 kmh NW 10.4 mph16.7 kmh 30.12 in1020.0 mb - 0.00 in0.0 mm 0.08 in2.0 mm
02:45 PM 44.9°F7.2°C 32.3°F0.2°C 61% 2.3 mph N3.7 kmh N 5.8 mph9.3 kmh 30.13 in1020.3 mb - 0.00 in0.0 mm 0.08 in2.0 mm
02:50 PM 44.7°F7.1°C 31.6°F-0.2°C 60% 4.6 mph NNW7.4 kmh NNW 8.1 mph13.0 kmh 30.13 in1020.3 mb - 0.00 in0.0 mm 0.08 in2.0 mm
02:55 PM 44.6°F7.0°C 32.4°F0.2°C 62% 3.5 mph NNW5.6 kmh NNW 6.9 mph11.1 kmh 30.13 in1020.3 mb - 0.00 in0.0 mm 0.08 in2.0 mm
03:00 PM 44.9°F7.2°C 32.6°F0.3°C 62% 2.3 mph NNW3.7 kmh NNW 6.9 mph11.1 kmh 30.13 in1020.3 mb - 0.00 in0.0 mm 0.08 in2.0 mm
03:10 PM 45.7°F7.6°C 33.8°F1.0°C 63% 2.3 mph NW3.7 kmh NW 4.6 mph7.4 kmh 30.12 in1020.0 mb - 0.00 in0.0 mm 0.08 in2.0 mm
03:15 PM 46.1°F7.8°C 33.8°F1.0°C 62% 3.5 mph NNW5.6 kmh NNW 3.5 mph5.6 kmh 30.13 in1020.3 mb - 0.00 in0.0 mm 0.08 in2.0 mm
03:20 PM 45.7°F7.6°C 32.2°F0.1°C 59% 4.6 mph NNW7.4 kmh NNW 3.5 mph5.6 kmh 30.12 in1020.0 mb - 0.00 in0.0 mm 0.08 in2.0 mm
03:25 PM 45.9°F7.7°C 33.6°F0.9°C 62% 2.3 mph NNW3.7 kmh NNW 3.5 mph5.6 kmh 30.12 in1020.0 mb - 0.00 in0.0 mm 0.08 in2.0 mm
03:30 PM 45.7°F7.6°C 32.2°F0.1°C 59% 4.6 mph NNW7.4 kmh NNW 8.1 mph13.0 kmh 30.12 in1020.0 mb - 0.00 in0.0 mm 0.08 in2.0 mm
03:35 PM 45.6°F7.6°C 32.9°F0.5°C 61% 3.5 mph NW5.6 kmh NW 4.6 mph7.4 kmh 30.12 in1020.0 mb - 0.00 in0.0 mm 0.08 in2.0 mm
03:40 PM 45.6°F7.6°C 32.5°F0.3°C 60% 4.6 mph NW7.4 kmh NW 5.8 mph9.3 kmh 30.13 in1020.3 mb - 0.00 in0.0 mm 0.08 in2.0 mm
03:45 PM 45.1°F7.3°C 32.1°F0.1°C 60% 3.5 mph NNW5.6 kmh NNW 8.1 mph13.0 kmh 30.13 in1020.3 mb - 0.00 in0.0 mm 0.08 in2.0 mm
03:50 PM 45.0°F7.2°C 32.3°F0.2°C 61% 3.5 mph NW5.6 kmh NW 5.8 mph9.3 kmh 30.13 in1020.3 mb - 0.00 in0.0 mm 0.08 in2.0 mm
03:55 PM 44.9°F7.2°C 32.3°F0.2°C 61% 3.5 mph NNW5.6 kmh NNW 5.8 mph9.3 kmh 30.13 in1020.3 mb - 0.00 in0.0 mm 0.08 in2.0 mm
04:00 PM 44.9°F7.2°C 32.7°F0.4°C 62% 2.3 mph NW3.7 kmh NW 3.5 mph5.6 kmh 30.14 in1020.7 mb - 0.00 in0.0 mm 0.08 in2.0 mm
04:10 PM 45.3°F7.4°C 33.0°F0.6°C 62% 3.5 mph N5.6 kmh N 5.8 mph9.3 kmh 30.14 in1020.7 mb - 0.00 in0.0 mm 0.08 in2.0 mm
04:15 PM 45.1°F7.3°C 32.0°F0.0°C 60% 3.5 mph N5.6 kmh N 4.6 mph7.4 kmh 30.14 in1020.7 mb - 0.00 in0.0 mm 0.08 in2.0 mm
04:20 PM 45.2°F7.3°C 33.3°F0.7°C 63% 2.3 mph NW3.7 kmh NW 3.5 mph5.6 kmh 30.14 in1020.7 mb - 0.00 in0.0 mm 0.08 in2.0 mm
04:25 PM 45.3°F7.4°C 33.1°F0.6°C 62% 3.5 mph NNW5.6 kmh NNW 5.8 mph9.3 kmh 30.14 in1020.7 mb - 0.00 in0.0 mm 0.08 in2.0 mm
04:30 PM 45.3°F7.4°C 33.5°F0.8°C 63% 2.3 mph NW3.7 kmh NW 4.6 mph7.4 kmh 30.14 in1020.7 mb - 0.00 in0.0 mm 0.08 in2.0 mm
04:35 PM 45.2°F7.3°C 32.5°F0.3°C 61% 4.6 mph NW7.4 kmh NW 6.9 mph11.1 kmh 30.14 in1020.7 mb - 0.00 in0.0 mm 0.08 in2.0 mm
04:40 PM 44.9°F7.2°C 32.7°F0.4°C 62% 4.6 mph NW7.4 kmh NW 5.8 mph9.3 kmh 30.14 in1020.7 mb - 0.00 in0.0 mm 0.08 in2.0 mm
04:45 PM 45.0°F7.2°C 33.1°F0.6°C 63% 2.3 mph NW3.7 kmh NW 4.6 mph7.4 kmh 30.14 in1020.7 mb - 0.00 in0.0 mm 0.08 in2.0 mm
04:50 PM 45.1°F7.3°C 32.8°F0.4°C 62% 2.3 mph NW3.7 kmh NW 6.9 mph11.1 kmh 30.14 in1020.7 mb - 0.00 in0.0 mm 0.08 in2.0 mm
04:55 PM 44.9°F7.2°C 32.3°F0.2°C 61% 3.5 mph NW5.6 kmh NW 6.9 mph11.1 kmh 30.14 in1020.7 mb - 0.00 in0.0 mm 0.08 in2.0 mm
05:00 PM 44.8°F7.1°C 32.2°F0.1°C 61% 3.5 mph NW5.6 kmh NW 6.9 mph11.1 kmh 30.14 in1020.7 mb - 0.00 in0.0 mm 0.08 in2.0 mm
05:10 PM 44.5°F6.9°C 31.4°F-0.3°C 60% 3.5 mph NW5.6 kmh NW 4.6 mph7.4 kmh 30.14 in1020.7 mb - 0.00 in0.0 mm 0.08 in2.0 mm
05:15 PM 44.4°F6.9°C 32.2°F0.1°C 62% 2.3 mph NNW3.7 kmh NNW 3.5 mph5.6 kmh 30.14 in1020.7 mb - 0.00 in0.0 mm 0.08 in2.0 mm
05:20 PM 44.6°F7.0°C 32.4°F0.2°C 62% 2.3 mph NW3.7 kmh NW 3.5 mph5.6 kmh 30.14 in1020.7 mb - 0.00 in0.0 mm 0.08 in2.0 mm
05:25 PM 44.5°F6.9°C 31.5°F-0.3°C 60% 4.6 mph NW7.4 kmh NW 9.2 mph14.8 kmh 30.14 in1020.7 mb - 0.00 in0.0 mm 0.08 in2.0 mm
05:30 PM 44.2°F6.8°C 31.6°F-0.2°C 61% 2.3 mph NW3.7 kmh NW 3.5 mph5.6 kmh 30.15 in1021.0 mb - 0.00 in0.0 mm 0.08 in2.0 mm
05:35 PM 43.9°F6.6°C 31.8°F-0.1°C 62% 2.3 mph NNW3.7 kmh NNW 3.5 mph5.6 kmh 30.14 in1020.7 mb - 0.00 in0.0 mm 0.08 in2.0 mm
05:40 PM 43.7°F6.5°C 32.0°F0.0°C 63% 2.3 mph NNW3.7 kmh NNW 3.5 mph5.6 kmh 30.15 in1021.0 mb - 0.00 in0.0 mm 0.08 in2.0 mm
05:45 PM 43.6°F6.4°C 32.2°F0.1°C 64% 2.3 mph NNW3.7 kmh NNW 4.6 mph7.4 kmh 30.15 in1021.0 mb - 0.00 in0.0 mm 0.08 in2.0 mm
05:50 PM 43.5°F6.4°C 31.7°F-0.2°C 63% 2.3 mph NNW3.7 kmh NNW 3.5 mph5.6 kmh 30.15 in1021.0 mb - 0.00 in0.0 mm 0.08 in2.0 mm
05:55 PM 43.3°F6.3°C 32.0°F0.0°C 64% 2.3 mph NNW3.7 kmh NNW 3.5 mph5.6 kmh 30.15 in1021.0 mb - 0.00 in0.0 mm 0.08 in2.0 mm
06:00 PM 43.1°F6.2°C 32.1°F0.1°C 65% 2.3 mph NNW3.7 kmh NNW 3.5 mph5.6 kmh 30.15 in1021.0 mb - 0.00 in0.0 mm 0.08 in2.0 mm
06:10 PM 42.7°F5.9°C 32.1°F0.1°C 66% 2.3 mph NNW3.7 kmh NNW 3.5 mph5.6 kmh 30.15 in1021.0 mb - 0.00 in0.0 mm 0.08 in2.0 mm
06:15 PM 42.5°F5.8°C 32.3°F0.2°C 67% 1.2 mph NNW1.9 kmh NNW 3.5 mph5.6 kmh 30.15 in1021.0 mb - 0.00 in0.0 mm 0.08 in2.0 mm
06:20 PM 42.3°F5.7°C 32.2°F0.1°C 67% 2.3 mph NW3.7 kmh NW 4.6 mph7.4 kmh 30.15 in1021.0 mb - 0.00 in0.0 mm 0.08 in2.0 mm
06:25 PM 42.2°F5.7°C 32.0°F0.0°C 67% 2.3 mph N3.7 kmh N 3.5 mph5.6 kmh 30.16 in1021.3 mb - 0.00 in0.0 mm 0.08 in2.0 mm
06:30 PM 42.0°F5.6°C 32.5°F0.3°C 69% 2.3 mph NNW3.7 kmh NNW 3.5 mph5.6 kmh 30.16 in1021.3 mb - 0.00 in0.0 mm 0.08 in2.0 mm
06:35 PM 41.6°F5.3°C 32.6°F0.3°C 70% 2.3 mph N3.7 kmh N 3.5 mph5.6 kmh 30.16 in1021.3 mb - 0.00 in0.0 mm 0.08 in2.0 mm
06:40 PM 41.5°F5.3°C 32.4°F0.2°C 70% 1.2 mph N1.9 kmh N 3.5 mph5.6 kmh 30.16 in1021.3 mb - 0.00 in0.0 mm 0.08 in2.0 mm
06:45 PM 41.4°F5.2°C 32.7°F0.4°C 71% 2.3 mph N3.7 kmh N 3.5 mph5.6 kmh 30.16 in1021.3 mb - 0.00 in0.0 mm 0.08 in2.0 mm
06:50 PM 41.3°F5.2°C 33.3°F0.7°C 73% 1.2 mph NNE1.9 kmh NNE 3.5 mph5.6 kmh 30.16 in1021.3 mb - 0.00 in0.0 mm 0.08 in2.0 mm
06:55 PM 41.1°F5.1°C 33.1°F0.6°C 73% 2.3 mph NNE3.7 kmh NNE 3.5 mph5.6 kmh 30.16 in1021.3 mb - 0.00 in0.0 mm 0.08 in2.0 mm
07:00 PM 41.2°F5.1°C 33.2°F0.7°C 73% 1.2 mph NNW1.9 kmh NNW 3.5 mph5.6 kmh 30.16 in1021.3 mb - 0.00 in0.0 mm 0.08 in2.0 mm
07:10 PM 41.3°F5.2°C 33.6°F0.9°C 74% 1.2 mph N1.9 kmh N 3.5 mph5.6 kmh 30.17 in1021.7 mb - 0.00 in0.0 mm 0.08 in2.0 mm
07:15 PM 41.3°F5.2°C 33.6°F0.9°C 74% 3.5 mph N5.6 kmh N 6.9 mph11.1 kmh 30.17 in1021.7 mb - 0.00 in0.0 mm 0.08 in2.0 mm
07:20 PM 41.1°F5.1°C 33.8°F1.0°C 75% 2.3 mph NNE3.7 kmh NNE 3.5 mph5.6 kmh 30.17 in1021.7 mb - 0.00 in0.0 mm 0.08 in2.0 mm
07:25 PM 41.0°F5.0°C 34.0°F1.1°C 76% 3.5 mph N5.6 kmh N 8.1 mph13.0 kmh 30.17 in1021.7 mb - 0.00 in0.0 mm 0.08 in2.0 mm
07:30 PM 40.8°F4.9°C 34.1°F1.2°C 77% 1.2 mph NNW1.9 kmh NNW 3.5 mph5.6 kmh 30.18 in1022.0 mb - 0.00 in0.0 mm 0.08 in2.0 mm
07:35 PM 40.7°F4.8°C 34.4°F1.3°C 78% 2.3 mph N3.7 kmh N 4.6 mph7.4 kmh 30.18 in1022.0 mb - 0.00 in0.0 mm 0.08 in2.0 mm
07:40 PM 40.6°F4.8°C 34.3°F1.3°C 78% 1.2 mph N1.9 kmh N 3.5 mph5.6 kmh 30.18 in1022.0 mb - 0.00 in0.0 mm 0.08 in2.0 mm
07:45 PM 40.5°F4.7°C 34.5°F1.4°C 79% 1.2 mph N1.9 kmh N 3.5 mph5.6 kmh 30.18 in1022.0 mb - 0.00 in0.0 mm 0.08 in2.0 mm
07:50 PM 40.4°F4.7°C 34.4°F1.3°C 79% 2.3 mph NNW3.7 kmh NNW 8.1 mph13.0 kmh 30.18 in1022.0 mb - 0.00 in0.0 mm 0.08 in2.0 mm
07:55 PM 40.3°F4.6°C 34.3°F1.3°C 79% 2.3 mph N3.7 kmh N 3.5 mph5.6 kmh 30.18 in1022.0 mb - 0.00 in0.0 mm 0.08 in2.0 mm
08:00 PM 40.2°F4.6°C 34.5°F1.4°C 80% 2.3 mph N3.7 kmh N 4.6 mph7.4 kmh 30.18 in1022.0 mb - 0.00 in0.0 mm 0.08 in2.0 mm
08:10 PM 40.1°F4.5°C 34.4°F1.3°C 80% 2.3 mph NNW3.7 kmh NNW 3.5 mph5.6 kmh 30.19 in1022.4 mb - 0.00 in0.0 mm 0.08 in2.0 mm
08:15 PM 40.0°F4.4°C 34.3°F1.3°C 80% 2.3 mph N3.7 kmh N 3.5 mph5.6 kmh 30.19 in1022.4 mb - 0.00 in0.0 mm 0.08 in2.0 mm
08:20 PM 39.9°F4.4°C 34.2°F1.2°C 80% 2.3 mph NNW3.7 kmh NNW 2.3 mph3.7 kmh 30.19 in1022.4 mb - 0.00 in0.0 mm 0.08 in2.0 mm
08:25 PM 39.8°F4.3°C 34.4°F1.3°C 81% 2.3 mph N3.7 kmh N 3.5 mph5.6 kmh 30.20 in1022.7 mb - 0.00 in0.0 mm 0.08 in2.0 mm
08:30 PM 39.8°F4.3°C 34.4°F1.3°C 81% 3.5 mph N5.6 kmh N 3.5 mph5.6 kmh 30.20 in1022.7 mb - 0.00 in0.0 mm 0.08 in2.0 mm
08:35 PM 39.7°F4.3°C 34.3°F1.3°C 81% 2.3 mph NW3.7 kmh NW 3.5 mph5.6 kmh 30.20 in1022.7 mb - 0.00 in0.0 mm 0.08 in2.0 mm
08:40 PM 39.7°F4.3°C 34.0°F1.1°C 80% 2.3 mph NNW3.7 kmh NNW 3.5 mph5.6 kmh 30.20 in1022.7 mb - 0.00 in0.0 mm 0.08 in2.0 mm
08:45 PM 39.6°F4.2°C 34.0°F1.1°C 80% 4.6 mph N7.4 kmh N 9.2 mph14.8 kmh 30.20 in1022.7 mb - 0.00 in0.0 mm 0.08 in2.0 mm
08:50 PM 39.5°F4.2°C 33.5°F0.8°C 79% 3.5 mph NNW5.6 kmh NNW 5.8 mph9.3 kmh 30.20 in1022.7 mb - 0.00 in0.0 mm 0.08 in2.0 mm
08:55 PM 39.5°F4.2°C 33.5°F0.8°C 79% 2.3 mph NNW3.7 kmh NNW 3.5 mph5.6 kmh 30.20 in1022.7 mb - 0.00 in0.0 mm 0.08 in2.0 mm
09:00 PM 39.4°F4.1°C 33.4°F0.8°C 79% 2.3 mph NNW3.7 kmh NNW 3.5 mph5.6 kmh 30.21 in1023.0 mb - 0.00 in0.0 mm 0.08 in2.0 mm
09:10 PM 39.2°F4.0°C 33.2°F0.7°C 79% 2.3 mph N3.7 kmh N 3.5 mph5.6 kmh 30.21 in1023.0 mb - 0.00 in0.0 mm 0.08 in2.0 mm
09:15 PM 39.1°F3.9°C 32.8°F0.4°C 78% 2.3 mph NW3.7 kmh NW 3.5 mph5.6 kmh 30.21 in1023.0 mb - 0.00 in0.0 mm 0.08 in2.0 mm
09:20 PM 39.0°F3.9°C 32.7°F0.4°C 78% 4.6 mph NNW7.4 kmh NNW 3.5 mph5.6 kmh 30.21 in1023.0 mb - 0.00 in0.0 mm 0.08 in2.0 mm
09:25 PM 38.9°F3.8°C 32.0°F0.0°C 76% 2.3 mph NNW3.7 kmh NNW 3.5 mph5.6 kmh 30.21 in1023.0 mb - 0.00 in0.0 mm 0.08 in2.0 mm
09:30 PM 38.8°F3.8°C 31.9°F-0.1°C 76% 3.5 mph NW5.6 kmh NW 4.6 mph7.4 kmh 30.22 in1023.4 mb - 0.00 in0.0 mm 0.08 in2.0 mm
09:35 PM 38.7°F3.7°C 31.8°F-0.1°C 76% 2.3 mph NNW3.7 kmh NNW 3.5 mph5.6 kmh 30.21 in1023.0 mb - 0.00 in0.0 mm 0.08 in2.0 mm
09:40 PM 38.6°F3.7°C 31.3°F-0.4°C 75% 3.5 mph NW5.6 kmh NW 3.5 mph5.6 kmh 30.22 in1023.4 mb - 0.00 in0.0 mm 0.08 in2.0 mm
09:45 PM 38.4°F3.6°C 31.2°F-0.4°C 75% 3.5 mph N5.6 kmh N 3.5 mph5.6 kmh 30.22 in1023.4 mb - 0.00 in0.0 mm 0.08 in2.0 mm
09:50 PM 38.3°F3.5°C 31.1°F-0.5°C 75% 3.5 mph NNW5.6 kmh NNW 5.8 mph9.3 kmh 30.22 in1023.4 mb - 0.00 in0.0 mm 0.08 in2.0 mm
09:55 PM 38.3°F3.5°C 30.4°F-0.9°C 73% 2.3 mph NW3.7 kmh NW 3.5 mph5.6 kmh 30.22 in1023.4 mb - 0.00 in0.0 mm 0.08 in2.0 mm
10:00 PM 38.2°F3.4°C 30.3°F-0.9°C 73% 2.3 mph NW3.7 kmh NW 3.5 mph5.6 kmh 30.23 in1023.7 mb - 0.00 in0.0 mm 0.08 in2.0 mm
10:10 PM 38.2°F3.4°C 30.6°F-0.8°C 74% 2.3 mph NW3.7 kmh NW 2.3 mph3.7 kmh 30.23 in1023.7 mb - 0.00 in0.0 mm 0.08 in2.0 mm
10:15 PM 38.1°F3.4°C 30.5°F-0.8°C 74% 1.2 mph N1.9 kmh N 3.5 mph5.6 kmh 30.23 in1023.7 mb - 0.00 in0.0 mm 0.08 in2.0 mm
10:20 PM 37.9°F3.3°C 30.4°F-0.9°C 74% 1.2 mph NW1.9 kmh NW 2.3 mph3.7 kmh 30.22 in1023.4 mb - 0.00 in0.0 mm 0.08 in2.0 mm
10:25 PM 37.6°F3.1°C 30.4°F-0.9°C 75% 2.3 mph NW3.7 kmh NW 3.5 mph5.6 kmh 30.22 in1023.4 mb - 0.00 in0.0 mm 0.08 in2.0 mm
10:30 PM 37.3°F2.9°C 30.1°F-1.1°C 75% 1.2 mph NNW1.9 kmh NNW 2.3 mph3.7 kmh 30.23 in1023.7 mb - 0.00 in0.0 mm 0.08 in2.0 mm
10:35 PM 37.0°F2.8°C 30.1°F-1.1°C 76% 1.2 mph NNW1.9 kmh NNW 1.2 mph1.9 kmh 30.23 in1023.7 mb - 0.00 in0.0 mm 0.08 in2.0 mm
10:40 PM 36.8°F2.7°C 30.3°F-0.9°C 77% 1.2 mph NW1.9 kmh NW 4.6 mph7.4 kmh 30.23 in1023.7 mb - 0.00 in0.0 mm 0.08 in2.0 mm
10:45 PM 36.6°F2.6°C 30.4°F-0.9°C 78% 1.2 mph NW1.9 kmh NW 3.5 mph5.6 kmh 30.23 in1023.7 mb - 0.00 in0.0 mm 0.08 in2.0 mm
10:50 PM 36.4°F2.4°C 30.5°F-0.8°C 79% 1.2 mph NNW1.9 kmh NNW 3.5 mph5.6 kmh 30.23 in1023.7 mb - 0.00 in0.0 mm 0.08 in2.0 mm
10:55 PM 36.4°F2.4°C 30.5°F-0.8°C 79% 2.3 mph N3.7 kmh N 3.5 mph5.6 kmh 30.23 in1023.7 mb - 0.00 in0.0 mm 0.08 in2.0 mm
11:00 PM 36.4°F2.4°C 30.8°F-0.7°C 80% 1.2 mph NNW1.9 kmh NNW 2.3 mph3.7 kmh 30.23 in1023.7 mb - 0.00 in0.0 mm 0.08 in2.0 mm
11:10 PM 36.2°F2.3°C 30.6°F-0.8°C 80% 1.2 mph NNW1.9 kmh NNW 2.3 mph3.7 kmh 30.23 in1023.7 mb - 0.00 in0.0 mm 0.08 in2.0 mm
11:15 PM 36.1°F2.3°C 30.5°F-0.8°C 80% 1.2 mph NNW1.9 kmh NNW 2.3 mph3.7 kmh 30.23 in1023.7 mb - 0.00 in0.0 mm 0.08 in2.0 mm
11:20 PM 36.0°F2.2°C 30.7°F-0.7°C 81% 1.2 mph NNW1.9 kmh NNW 2.3 mph3.7 kmh 30.22 in1023.4 mb - 0.00 in0.0 mm 0.08 in2.0 mm
11:25 PM 35.8°F2.1°C 30.5°F-0.8°C 81% Calm Calm 1.2 mph1.9 kmh 30.22 in1023.4 mb - 0.00 in0.0 mm 0.08 in2.0 mm
11:30 PM 35.6°F2.0°C 30.6°F-0.8°C 82% Calm Calm -- 30.22 in1023.4 mb - 0.00 in0.0 mm 0.08 in2.0 mm
11:35 PM 35.4°F1.9°C 30.5°F-0.8°C 82% Calm Calm -- 30.22 in1023.4 mb - 0.00 in0.0 mm 0.08 in2.0 mm
11:40 PM 35.3°F1.8°C 30.4°F-0.9°C 82% Calm Calm -- 30.22 in1023.4 mb - 0.00 in0.0 mm 0.08 in2.0 mm
11:45 PM 35.2°F1.8°C 30.3°F-0.9°C 82% Calm Calm -- 30.21 in1023.0 mb - 0.00 in0.0 mm 0.08 in2.0 mm
11:50 PM 35.1°F1.7°C 30.4°F-0.9°C 83% Calm Calm -- 30.21 in1023.0 mb - 0.00 in0.0 mm 0.08 in2.0 mm
11:55 PM 35.0°F1.7°C 30.4°F-0.9°C 83% Calm Calm -- 30.21 in1023.0 mb - 0.00 in0.0 mm 0.08 in2.0 mm